createdAt,value
2023-05-05T00:02:09.364Z,3.22
2023-05-05T00:04:36.134Z,2.67
2023-05-05T00:07:02.539Z,3.15
2023-05-05T00:09:29.657Z,2.85
2023-05-05T00:11:56.047Z,2.78
2023-05-05T00:14:22.502Z,3.17
2023-05-05T00:16:48.944Z,3.00
2023-05-05T00:19:15.400Z,2.47
2023-05-05T00:21:41.823Z,3.42
2023-05-05T00:24:10.127Z,2.83
2023-05-05T00:26:36.548Z,2.28
2023-05-05T00:29:02.969Z,2.72
2023-05-05T00:31:29.440Z,2.60
2023-05-05T00:33:56.357Z,3.10
2023-05-05T00:36:23.002Z,3.45
2023-05-05T00:38:49.472Z,3.03
2023-05-05T00:41:15.984Z,3.15
2023-05-05T00:43:42.421Z,3.85
2023-05-05T00:46:26.068Z,3.20
2023-05-05T00:48:53.769Z,3.67
2023-05-05T00:51:20.991Z,2.85
2023-05-05T00:53:48.193Z,3.08
2023-05-05T00:56:16.839Z,3.08
2023-05-05T00:58:43.987Z,2.72
2023-05-05T01:01:11.609Z,3.33
2023-05-05T01:03:39.510Z,3.22
2023-05-05T01:06:20.978Z,2.65
2023-05-05T01:09:19.470Z,3.35
2023-05-05T01:14:44.196Z,2.70
2023-05-05T01:17:18.767Z,3.45
2023-05-05T01:20:03.036Z,3.25
2023-05-05T01:22:39.486Z,2.47
2023-05-05T01:25:12.238Z,2.97
2023-05-05T01:27:55.604Z,2.40
2023-05-05T01:30:43.837Z,2.70
2023-05-05T01:33:15.455Z,2.97
2023-05-05T01:51:36.548Z,3.17
2023-05-05T01:54:05.970Z,3.05
2023-05-05T01:56:34.545Z,2.90
2023-05-05T01:59:02.376Z,3.50
2023-05-05T02:01:30.385Z,3.83
2023-05-05T02:03:59.009Z,3.47
2023-05-05T02:06:29.787Z,3.55
2023-05-05T02:08:58.490Z,3.13
2023-05-05T02:11:26.889Z,3.53
2023-05-05T02:13:54.657Z,3.03
2023-05-05T02:16:22.708Z,3.60
2023-05-05T02:18:49.805Z,2.90
2023-05-05T02:21:18.166Z,2.97
2023-05-05T02:23:48.187Z,3.28
2023-05-05T02:26:16.987Z,2.47
2023-05-05T02:29:05.614Z,2.85
2023-05-05T02:31:37.445Z,2.72
2023-05-05T02:34:05.802Z,3.50
2023-05-05T02:36:37.229Z,2.80
2023-05-05T02:39:22.515Z,2.97
2023-05-05T02:41:51.291Z,2.65
2023-05-05T02:44:19.953Z,3.50
2023-05-05T02:46:47.226Z,3.20
2023-05-05T02:49:15.475Z,3.15
2023-05-05T02:51:41.900Z,3.30
2023-05-05T02:54:08.588Z,3.35
2023-05-05T02:59:16.463Z,2.67
2023-05-05T03:01:57.312Z,3.03
2023-05-05T03:04:31.952Z,2.72
2023-05-05T03:07:14.435Z,2.88
2023-05-05T03:09:46.037Z,2.65
2023-05-05T03:12:18.285Z,4.10
2023-05-05T03:14:46.053Z,2.80
2023-05-05T03:17:13.539Z,2.63
2023-05-05T03:19:44.559Z,2.45
2023-05-05T03:22:11.472Z,3.67
2023-05-05T03:24:37.891Z,2.75
2023-05-05T03:27:04.403Z,2.90
2023-05-05T03:29:31.047Z,4.40
2023-05-05T03:31:58.509Z,2.63
2023-05-05T03:34:24.944Z,3.03
2023-05-05T03:36:51.359Z,3.30
2023-05-05T03:39:18.849Z,2.88
2023-05-05T03:41:45.460Z,2.65
2023-05-05T03:44:11.958Z,2.90
2023-05-05T03:46:39.088Z,2.83
2023-05-05T03:49:05.607Z,3.22
2023-05-05T03:51:32.235Z,3.25
2023-05-05T03:53:58.744Z,3.58
2023-05-05T03:56:25.196Z,2.85
2023-05-05T03:58:51.751Z,3.58
2023-05-05T04:01:18.194Z,3.05
2023-05-05T04:03:44.770Z,3.08
2023-05-05T04:08:38.002Z,3.03
2023-05-05T04:11:04.528Z,2.90
2023-05-05T04:13:31.215Z,3.08
2023-05-05T04:15:59.063Z,3.10
2023-05-05T04:18:26.310Z,3.28
2023-05-05T04:20:52.762Z,3.25
2023-05-05T04:23:19.179Z,2.90
2023-05-05T04:25:47.356Z,3.30
2023-05-05T04:28:13.824Z,3.03
2023-05-05T04:30:40.999Z,2.90
2023-05-05T04:33:07.749Z,3.15
2023-05-05T04:38:01.215Z,2.95
2023-05-05T04:40:27.783Z,3.63
2023-05-05T04:43:18.720Z,2.95
2023-05-05T04:45:55.436Z,3.38
2023-05-05T04:48:22.023Z,3.83
2023-05-05T04:50:48.710Z,4.18
2023-05-05T04:53:15.160Z,3.28
2023-05-05T04:55:41.723Z,2.83
2023-05-05T04:58:08.136Z,3.67
2023-05-05T05:00:36.847Z,2.83
2023-05-05T05:03:04.065Z,3.25
2023-05-05T05:05:30.666Z,3.80
2023-05-05T05:07:57.123Z,3.25
2023-05-05T05:10:23.637Z,3.25
2023-05-05T05:12:50.125Z,3.75
2023-05-05T05:15:16.592Z,3.35
2023-05-05T05:17:43.092Z,3.00
2023-05-05T05:20:13.061Z,3.85
2023-05-05T05:22:39.565Z,4.50
2023-05-05T05:25:06.519Z,3.70
2023-05-05T05:27:33.042Z,4.05
2023-05-05T05:29:59.672Z,3.45
2023-05-05T05:32:26.451Z,4.03
2023-05-05T05:37:19.339Z,3.65
2023-05-05T05:39:51.602Z,3.60
2023-05-05T05:42:18.023Z,4.20
2023-05-05T05:44:44.512Z,4.95
2023-05-05T05:47:11.148Z,4.10
2023-05-05T05:49:37.778Z,6.10
2023-05-05T05:52:04.600Z,3.55
2023-05-05T05:56:59.144Z,3.72
2023-05-05T05:59:25.687Z,4.60
2023-05-05T06:01:52.289Z,5.05
2023-05-05T06:04:18.860Z,4.57
2023-05-05T06:06:45.592Z,5.22
2023-05-05T06:11:38.649Z,4.72
2023-05-05T06:14:05.111Z,4.25
2023-05-05T06:16:31.680Z,3.97
2023-05-05T06:18:58.192Z,4.57
2023-05-05T06:21:24.709Z,4.43
2023-05-05T06:23:51.194Z,4.20
2023-05-05T06:26:17.671Z,4.45
2023-05-05T06:28:44.689Z,3.95
2023-05-05T06:31:12.967Z,4.35
2023-05-05T06:33:39.555Z,5.05
2023-05-05T06:36:06.377Z,4.90
2023-05-05T06:40:59.321Z,4.32
2023-05-05T06:43:25.858Z,4.53
2023-05-05T06:45:52.337Z,4.72
2023-05-05T06:48:18.872Z,5.00
2023-05-05T06:50:45.390Z,4.05
2023-05-05T06:53:11.906Z,4.65
2023-05-05T06:55:38.401Z,4.75
2023-05-05T06:58:04.841Z,4.28
2023-05-05T07:00:31.314Z,4.60
2023-05-05T07:02:58.626Z,4.03
2023-05-05T07:05:25.134Z,4.18
2023-05-05T07:07:56.753Z,4.82
2023-05-05T07:10:24.603Z,4.35
2023-05-05T07:12:52.103Z,4.32
2023-05-05T07:15:57.367Z,4.20
2023-05-05T07:18:55.622Z,4.63
2023-05-05T07:21:34.541Z,4.07
2023-05-05T07:24:03.432Z,4.35
2023-05-05T07:26:32.697Z,4.25
2023-05-05T07:28:59.578Z,3.55
2023-05-05T07:31:26.787Z,4.32
2023-05-05T07:33:53.466Z,4.97
2023-05-05T07:36:20.519Z,4.60
2023-05-05T07:38:47.014Z,4.65
2023-05-05T07:41:13.609Z,3.65
2023-05-05T07:43:44.655Z,5.32
2023-05-05T07:46:12.894Z,4.53
2023-05-05T07:48:41.559Z,5.15
2023-05-05T07:51:11.917Z,4.20
2023-05-05T07:53:38.388Z,4.00
2023-05-05T07:56:09.979Z,5.05
2023-05-05T07:58:36.604Z,4.38
2023-05-05T08:01:03.234Z,4.82
2023-05-05T08:03:29.940Z,4.47
2023-05-05T08:05:56.565Z,4.45
2023-05-05T08:08:25.064Z,5.05
2023-05-05T08:10:55.126Z,4.47
2023-05-05T08:13:21.807Z,4.13
2023-05-05T08:15:48.326Z,4.72
2023-05-05T08:18:14.931Z,4.88
2023-05-05T08:20:41.670Z,4.13
2023-05-05T08:25:34.650Z,4.88
2023-05-05T08:28:02.369Z,5.53
2023-05-05T08:31:02.522Z,5.10
2023-05-05T08:33:31.614Z,6.20
2023-05-05T08:35:58.315Z,4.65
2023-05-05T08:38:24.795Z,5.60
2023-05-05T08:40:52.124Z,5.05
2023-05-05T08:43:23.947Z,6.07
2023-05-05T08:45:51.721Z,4.43
2023-05-05T08:48:23.183Z,5.50
2023-05-05T08:50:59.832Z,5.07
2023-05-05T08:53:46.719Z,5.85
2023-05-05T08:56:13.671Z,9.45
2023-05-05T08:58:41.915Z,4.93
2023-05-05T09:01:09.940Z,5.18
2023-05-05T09:03:39.234Z,5.03
2023-05-05T09:06:06.943Z,5.38
2023-05-05T09:09:35.897Z,5.45
2023-05-05T09:12:03.058Z,4.38
2023-05-05T09:14:29.553Z,4.72
2023-05-05T09:16:56.261Z,4.38
2023-05-05T09:21:52.010Z,4.68
2023-05-05T09:24:18.829Z,4.97
2023-05-05T09:29:22.871Z,4.93
2023-05-05T09:32:08.976Z,5.72
2023-05-05T09:34:36.320Z,4.80
2023-05-05T09:37:06.304Z,4.70
2023-05-05T09:39:33.088Z,4.68
2023-05-05T09:41:59.632Z,4.57
2023-05-05T09:44:37.167Z,4.55
2023-05-05T09:47:18.146Z,4.35
2023-05-05T09:49:59.231Z,4.35
2023-05-05T09:52:26.016Z,4.20
2023-05-05T09:57:33.091Z,3.95
2023-05-05T10:00:01.500Z,4.70
2023-05-05T10:02:33.481Z,4.55
2023-05-05T10:05:11.182Z,4.38
2023-05-05T10:07:39.088Z,4.03
2023-05-05T10:10:08.657Z,3.97
2023-05-05T10:12:37.133Z,5.47
2023-05-05T10:15:10.129Z,4.05
2023-05-05T10:18:05.381Z,3.83
2023-05-05T10:20:37.688Z,3.85
2023-05-05T10:23:08.266Z,4.32
2023-05-05T10:25:42.194Z,4.10
2023-05-05T10:28:14.725Z,3.80
2023-05-05T10:30:44.226Z,3.60
2023-05-05T10:35:53.781Z,4.35
2023-05-05T10:38:20.880Z,3.85
2023-05-05T10:40:48.815Z,3.83
2023-05-05T10:43:15.537Z,4.03
2023-05-05T10:45:43.143Z,3.70
2023-05-05T10:48:18.708Z,3.80
2023-05-05T10:50:51.233Z,3.53
2023-05-05T10:53:28.848Z,3.67
2023-05-05T10:56:18.136Z,3.63
2023-05-05T10:58:58.881Z,4.00
2023-05-05T11:01:34.964Z,3.70
2023-05-05T11:04:21.914Z,3.55
2023-05-05T11:07:14.321Z,4.35
2023-05-05T11:09:58.619Z,2.83
2023-05-05T11:12:25.176Z,3.17
2023-05-05T11:15:36.346Z,3.15
2023-05-05T11:18:07.825Z,3.80
2023-05-05T11:20:39.777Z,3.40
2023-05-05T11:23:06.411Z,3.08
2023-05-05T11:25:36.593Z,3.22
2023-05-05T11:28:11.599Z,3.72
2023-05-05T11:30:56.898Z,3.38
2023-05-05T11:33:38.439Z,3.53
2023-05-05T11:36:07.138Z,3.28
2023-05-05T11:39:05.449Z,3.72
2023-05-05T11:41:51.603Z,3.03
2023-05-05T11:44:20.201Z,3.95
2023-05-05T11:46:52.828Z,3.78
2023-05-05T11:49:39.402Z,3.03
2023-05-05T11:52:07.957Z,3.88
2023-05-05T11:54:41.512Z,2.70
2023-05-05T11:57:09.508Z,2.85
2023-05-05T11:59:56.080Z,2.95
2023-05-05T12:02:23.274Z,3.15
2023-05-05T12:04:51.323Z,2.85
2023-05-05T12:07:19.224Z,3.30
2023-05-05T12:09:47.312Z,2.92
2023-05-05T12:12:14.888Z,2.95
2023-05-05T12:14:46.938Z,2.88
2023-05-05T12:17:13.439Z,3.95
2023-05-05T12:19:46.300Z,2.58
2023-05-05T12:22:19.588Z,3.35
2023-05-05T12:24:55.017Z,3.20
2023-05-05T12:27:22.333Z,3.35
2023-05-05T12:29:49.582Z,3.17
2023-05-05T12:32:28.108Z,3.25
2023-05-05T12:34:57.605Z,3.03
2023-05-05T12:37:26.245Z,2.97
2023-05-05T12:40:01.664Z,2.58
2023-05-05T12:42:46.447Z,2.95
2023-05-05T12:45:17.571Z,3.08
2023-05-05T12:47:44.897Z,2.53
2023-05-05T12:50:11.550Z,3.10
2023-05-05T12:52:45.496Z,2.97
2023-05-05T12:55:12.662Z,2.92
2023-05-05T12:57:58.484Z,2.50
2023-05-05T13:00:25.635Z,3.10
2023-05-05T13:02:53.145Z,2.70
2023-05-05T13:05:33.600Z,2.78
2023-05-05T13:11:59.605Z,2.80
2023-05-05T13:14:45.167Z,3.00
2023-05-05T13:17:12.319Z,2.88
2023-05-05T13:19:47.915Z,2.90
2023-05-05T13:22:24.284Z,2.70
2023-05-05T13:25:14.139Z,3.33
2023-05-05T13:27:42.319Z,2.92
2023-05-05T13:30:09.683Z,2.40
2023-05-05T13:32:36.898Z,2.85
2023-05-05T13:35:16.222Z,2.88
2023-05-05T13:37:47.741Z,2.50
2023-05-05T13:40:21.446Z,2.70
2023-05-05T13:47:16.488Z,2.15
2023-05-05T13:54:13.426Z,2.42
2023-05-05T14:00:51.387Z,3.03
2023-05-05T14:22:42.250Z,2.63
2023-05-05T14:25:11.944Z,3.33
2023-05-05T14:27:45.880Z,2.70
2023-05-05T14:30:41.509Z,2.40
2023-05-05T14:33:18.473Z,3.00
2023-05-05T14:35:53.612Z,2.88
2023-05-05T14:38:33.794Z,2.28
2023-05-05T14:41:30.790Z,2.60
2023-05-05T14:52:29.812Z,2.90
2023-05-05T14:54:56.448Z,2.60
2023-05-05T15:07:59.901Z,2.33
2023-05-05T15:10:39.634Z,2.38
2023-05-05T15:13:33.587Z,2.33
2023-05-05T15:22:01.522Z,2.45
2023-05-05T15:24:52.907Z,3.55
2023-05-05T15:34:34.124Z,2.78
2023-05-05T15:37:46.314Z,2.53
2023-05-05T15:40:58.551Z,2.40
2023-05-05T15:47:08.604Z,3.33
2023-05-05T15:51:04.140Z,2.90
2023-05-05T15:57:20.691Z,3.30
2023-05-05T16:03:58.132Z,3.05
2023-05-05T16:07:09.924Z,3.42
2023-05-05T16:09:39.766Z,3.38
2023-05-05T16:14:36.640Z,3.20
2023-05-05T16:17:03.160Z,3.20
2023-05-05T16:19:31.039Z,3.42
2023-05-05T16:21:57.613Z,2.60
2023-05-05T16:24:24.113Z,3.00
2023-05-05T16:26:51.391Z,3.35
2023-05-05T16:29:17.818Z,3.90
2023-05-05T16:31:44.277Z,3.30
2023-05-05T16:34:10.993Z,3.80
2023-05-05T16:36:37.468Z,3.83
2023-05-05T16:39:04.041Z,3.20
2023-05-05T16:41:30.709Z,3.28
2023-05-05T16:46:23.759Z,3.17
2023-05-05T16:51:17.138Z,3.35
2023-05-05T16:53:43.683Z,3.55
2023-05-05T16:56:13.212Z,3.25
2023-05-05T16:58:40.538Z,4.28
2023-05-05T17:01:07.011Z,4.00
2023-05-05T17:03:33.445Z,3.13
2023-05-05T17:06:00.016Z,3.25
2023-05-05T17:08:26.570Z,3.25
2023-05-05T17:10:53.039Z,3.25
2023-05-05T17:13:19.692Z,3.33
2023-05-05T17:18:18.504Z,3.03
2023-05-05T17:20:45.031Z,3.72
2023-05-05T17:23:12.668Z,3.70
2023-05-05T17:25:39.224Z,3.80
2023-05-05T17:28:05.743Z,2.65
2023-05-05T17:30:32.349Z,3.25
2023-05-05T17:32:58.888Z,2.97
2023-05-05T17:35:28.522Z,3.22
2023-05-05T17:37:55.273Z,3.92
2023-05-05T17:42:48.679Z,3.65
2023-05-05T17:45:15.624Z,3.58
2023-05-05T17:47:42.497Z,3.72
2023-05-05T17:50:11.923Z,3.88
2023-05-05T17:52:38.579Z,3.25
2023-05-05T17:55:11.539Z,3.55
2023-05-05T17:57:40.905Z,3.97
2023-05-05T18:00:09.071Z,4.00
2023-05-05T18:02:37.220Z,3.78
2023-05-05T18:05:04.304Z,3.38
2023-05-05T18:07:31.794Z,3.70
2023-05-05T18:09:58.272Z,3.53
2023-05-05T18:12:24.829Z,3.55
2023-05-05T18:14:52.069Z,3.33
2023-05-05T18:17:18.842Z,3.35
2023-05-05T18:22:15.826Z,3.17
2023-05-05T18:27:09.129Z,4.22
2023-05-05T18:32:12.185Z,4.03
2023-05-05T18:34:38.716Z,4.53
2023-05-05T18:37:05.315Z,3.90
2023-05-05T18:39:31.796Z,4.18
2023-05-05T18:42:03.627Z,4.28
2023-05-05T18:44:30.185Z,4.43
2023-05-05T18:46:56.980Z,3.83
2023-05-05T18:49:24.760Z,4.68
2023-05-05T18:51:52.174Z,4.22
2023-05-05T18:54:18.612Z,4.63
2023-05-05T18:56:45.137Z,4.63
2023-05-05T18:59:11.844Z,4.50
2023-05-05T19:01:38.564Z,4.10
2023-05-05T19:06:39.942Z,4.63
2023-05-05T19:09:06.467Z,4.50
2023-05-05T19:11:32.930Z,4.78
2023-05-05T19:13:59.382Z,4.05
2023-05-05T19:16:27.076Z,5.13
2023-05-05T19:18:58.629Z,4.20
2023-05-05T19:21:27.594Z,5.20
2023-05-05T19:23:54.133Z,4.40
2023-05-05T19:26:20.550Z,4.32
2023-05-05T19:28:47.085Z,4.25
2023-05-05T19:31:13.522Z,3.90
2023-05-05T19:33:44.905Z,5.20
2023-05-05T19:36:14.787Z,5.10
2023-05-05T19:38:44.408Z,3.78
2023-05-05T19:41:11.808Z,3.92
2023-05-05T19:43:38.275Z,4.00
2023-05-05T19:46:04.898Z,4.47
2023-05-05T19:48:31.590Z,3.80
2023-05-05T19:50:58.070Z,4.30
2023-05-05T19:53:25.467Z,4.88
2023-05-05T19:55:51.979Z,4.43
2023-05-05T19:58:18.967Z,4.63
2023-05-05T20:00:45.417Z,5.00
2023-05-05T20:03:48.528Z,4.30
2023-05-05T20:06:15.110Z,3.63
2023-05-05T20:08:41.554Z,4.30
2023-05-05T20:11:08.019Z,3.78
2023-05-05T20:13:36.535Z,3.83
2023-05-05T20:16:03.146Z,4.45
2023-05-05T20:18:29.617Z,4.07
2023-05-05T20:20:56.397Z,4.43
2023-05-05T20:25:49.317Z,3.80
2023-05-05T20:28:16.086Z,5.15
2023-05-05T20:33:09.067Z,4.43
2023-05-05T20:35:35.538Z,3.85
2023-05-05T20:38:04.078Z,4.53
2023-05-05T20:40:31.548Z,4.00
2023-05-05T20:42:58.739Z,4.43
2023-05-05T20:45:25.629Z,4.25
2023-05-05T20:47:52.245Z,4.05
2023-05-05T20:50:22.121Z,4.65
2023-05-05T20:52:49.484Z,5.00
2023-05-05T20:55:15.981Z,4.55
2023-05-05T20:57:42.450Z,5.78
2023-05-05T21:00:09.682Z,4.68
2023-05-05T21:02:36.451Z,4.18
2023-05-05T21:05:03.168Z,4.05
2023-05-05T21:07:31.385Z,4.00
2023-05-05T21:10:00.960Z,3.67
2023-05-05T21:12:29.001Z,4.25
2023-05-05T21:14:59.485Z,4.20
2023-05-05T21:17:27.133Z,4.53
2023-05-05T21:19:54.195Z,4.60
2023-05-05T21:22:21.242Z,4.07
2023-05-05T21:24:48.318Z,4.45
2023-05-05T21:27:15.172Z,4.47
2023-05-05T21:29:41.657Z,3.92
2023-05-05T21:32:09.419Z,4.00
2023-05-05T21:34:36.665Z,3.72
2023-05-05T21:37:03.571Z,3.97
2023-05-05T21:39:33.292Z,3.92
2023-05-05T21:42:00.654Z,3.88
2023-05-05T21:44:28.265Z,3.90
2023-05-05T21:46:55.415Z,4.03
2023-05-05T21:49:22.188Z,4.38
2023-05-05T21:54:15.071Z,4.95
2023-05-05T21:56:41.649Z,3.45
2023-05-05T21:59:08.125Z,4.40
2023-05-05T22:01:35.124Z,3.60
2023-05-05T22:04:01.715Z,3.83
2023-05-05T22:06:28.222Z,4.22
2023-05-05T22:08:54.822Z,4.60
2023-05-05T22:11:21.424Z,4.53
2023-05-05T22:13:48.002Z,4.45
2023-05-05T22:16:16.105Z,4.18
2023-05-05T22:18:42.535Z,4.15
2023-05-05T22:21:09.191Z,4.72
2023-05-05T22:23:37.148Z,4.53
2023-05-05T22:26:04.860Z,3.90
2023-05-05T22:28:31.276Z,4.13
2023-05-05T22:30:57.805Z,4.63
2023-05-05T22:33:24.476Z,3.97
2023-05-05T22:35:52.157Z,4.20
2023-05-05T22:38:18.807Z,4.03
2023-05-05T22:40:45.926Z,5.15
2023-05-05T22:43:12.357Z,4.03
2023-05-05T22:45:38.960Z,4.20
2023-05-05T22:48:06.017Z,5.95
2023-05-05T22:50:32.470Z,4.35
2023-05-05T22:52:58.909Z,4.20
2023-05-05T22:55:25.387Z,4.25
2023-05-05T22:57:52.748Z,4.53
2023-05-05T23:00:19.335Z,4.75
2023-05-05T23:02:45.921Z,4.13
2023-05-05T23:05:12.690Z,4.75
2023-05-05T23:07:39.399Z,4.53
2023-05-05T23:10:06.388Z,3.95
2023-05-05T23:12:32.903Z,4.60
2023-05-05T23:14:59.376Z,4.72
2023-05-05T23:17:25.947Z,4.35
2023-05-05T23:19:52.901Z,4.28
2023-05-05T23:22:19.328Z,4.22
2023-05-05T23:24:45.771Z,4.20
2023-05-05T23:27:12.680Z,4.88
2023-05-05T23:29:39.250Z,4.63
2023-05-05T23:32:06.506Z,4.40
2023-05-05T23:34:32.972Z,4.20
2023-05-05T23:36:59.405Z,4.75
2023-05-05T23:39:25.838Z,5.38
2023-05-05T23:41:52.356Z,4.93
2023-05-05T23:44:18.849Z,4.93
2023-05-05T23:46:45.360Z,5.10
2023-05-05T23:49:11.867Z,5.00
2023-05-05T23:51:38.312Z,5.15
2023-05-05T23:54:04.777Z,4.80
2023-05-05T23:56:31.234Z,5.97
2023-05-05T23:58:57.690Z,5.78
